createdAt,value
2019-01-11T00:04:11.285Z,15.13
2019-01-11T00:09:19.066Z,15.27
2019-01-11T00:14:25.227Z,14.70
2019-01-11T00:19:31.339Z,13.67
2019-01-11T00:24:37.585Z,12.83
2019-01-11T00:29:43.746Z,11.67
2019-01-11T00:34:49.987Z,11.03
2019-01-11T00:39:56.219Z,10.97
2019-01-11T00:45:02.296Z,8.53
2019-01-11T00:50:08.697Z,8.37
2019-01-11T00:55:14.858Z,8.17
2019-01-11T01:00:21.950Z,8.37
2019-01-11T01:05:28.040Z,9.33
2019-01-11T01:10:34.217Z,9.30
2019-01-11T01:15:40.376Z,8.73
2019-01-11T01:20:46.473Z,8.70
2019-01-11T01:25:52.693Z,8.30
2019-01-11T01:30:58.818Z,8.20
2019-01-11T01:36:05.002Z,8.83
2019-01-11T01:41:11.268Z,8.50
2019-01-11T01:46:17.453Z,9.30
2019-01-11T01:51:23.678Z,9.80
2019-01-11T01:56:29.997Z,9.17
2019-01-11T02:01:37.244Z,10.27
2019-01-11T02:06:43.422Z,11.57
2019-01-11T02:11:49.513Z,12.53
2019-01-11T02:16:55.621Z,13.60
2019-01-11T02:22:01.825Z,14.70
2019-01-11T02:27:08.181Z,15.10
2019-01-11T02:32:14.308Z,14.77
2019-01-11T02:37:20.413Z,15.83
2019-01-11T02:42:26.557Z,16.97
2019-01-11T02:47:32.704Z,16.33
2019-01-11T02:52:38.808Z,16.57
2019-01-11T02:57:44.893Z,16.73
2019-01-11T03:02:50.988Z,14.77
2019-01-11T03:07:57.150Z,16.33
2019-01-11T03:13:03.318Z,16.27
2019-01-11T03:18:09.475Z,15.73
2019-01-11T03:23:15.546Z,16.97
2019-01-11T03:28:21.726Z,16.60
2019-01-11T03:33:27.907Z,16.43
2019-01-11T03:38:34.072Z,18.03
2019-01-11T03:43:40.329Z,17.10
2019-01-11T03:48:46.497Z,17.93
2019-01-11T03:53:52.620Z,19.37
2019-01-11T03:58:58.718Z,16.67
2019-01-11T04:04:05.018Z,16.20
2019-01-11T04:09:12.927Z,14.30
2019-01-11T04:14:19.172Z,14.07
2019-01-11T04:19:25.262Z,13.53
2019-01-11T04:24:34.055Z,13.37
2019-01-11T04:29:40.227Z,12.50
2019-01-11T04:34:47.609Z,10.77
2019-01-11T04:39:53.731Z,9.43
2019-01-11T04:44:59.854Z,8.93
2019-01-11T04:50:09.444Z,8.10
2019-01-11T04:55:14.037Z,7.43
2019-01-11T05:00:22.583Z,6.17
2019-01-11T05:05:29.012Z,6.40
2019-01-11T05:10:35.074Z,6.80
2019-01-11T05:15:42.140Z,6.93
2019-01-11T05:20:48.463Z,7.10
2019-01-11T05:25:54.612Z,6.27
2019-01-11T05:31:00.786Z,6.23
2019-01-11T05:36:07.382Z,5.97
2019-01-11T05:41:14.859Z,6.13
2019-01-11T05:46:21.024Z,6.23
2019-01-11T05:51:27.130Z,6.70
2019-01-11T05:56:33.382Z,6.20
2019-01-11T06:01:39.478Z,6.70
2019-01-11T06:07:07.543Z,8.20
2019-01-11T06:12:13.650Z,9.27
2019-01-11T06:17:19.787Z,11.27
2019-01-11T06:22:27.148Z,10.90
2019-01-11T06:27:33.577Z,10.87
2019-01-11T06:32:39.825Z,10.20
2019-01-11T06:37:45.930Z,11.00
2019-01-11T06:43:03.523Z,11.30
2019-01-11T06:48:15.177Z,11.37
2019-01-11T06:53:21.322Z,11.17
2019-01-11T06:58:27.551Z,12.20
2019-01-11T07:03:36.014Z,11.73
2019-01-11T07:08:45.043Z,11.63
2019-01-11T07:13:54.410Z,14.90
2019-01-11T07:19:00.709Z,10.63
2019-01-11T07:24:06.983Z,10.07
2019-01-11T07:29:12.992Z,9.63
2019-01-11T07:34:19.478Z,9.43
2019-01-11T07:39:30.300Z,9.80
2019-01-11T07:44:36.562Z,9.07
2019-01-11T07:49:42.610Z,8.43
2019-01-11T07:54:48.703Z,8.40
2019-01-11T07:59:55.619Z,8.57
2019-01-11T08:05:02.992Z,7.37
2019-01-11T08:10:09.306Z,8.10
2019-01-11T08:15:16.095Z,8.43
2019-01-11T08:20:22.280Z,8.10
2019-01-11T08:25:28.463Z,6.87
2019-01-11T08:30:34.666Z,7.03
2019-01-11T08:35:40.792Z,7.57
2019-01-11T08:40:46.876Z,6.30
2019-01-11T08:45:53.070Z,6.63
2019-01-11T08:51:02.647Z,7.03
2019-01-11T08:56:08.548Z,6.13
2019-01-11T09:01:14.838Z,5.73
2019-01-11T09:06:20.950Z,5.40
2019-01-11T09:11:27.162Z,4.87
2019-01-11T09:16:33.374Z,5.43
2019-01-11T09:21:41.790Z,5.13
2019-01-11T09:26:47.387Z,4.47
2019-01-11T09:31:53.461Z,5.47
2019-01-11T09:36:59.619Z,5.20
2019-01-11T09:42:06.326Z,4.90
2019-01-11T09:47:12.478Z,4.90
2019-01-11T09:52:20.541Z,5.10
2019-01-11T09:57:26.699Z,4.50
2019-01-11T10:02:40.912Z,4.30
2019-01-11T10:07:47.177Z,3.67
2019-01-11T10:12:53.293Z,3.00
2019-01-11T10:17:59.402Z,2.90
2019-01-11T10:23:05.550Z,1.93
2019-01-11T10:28:13.209Z,1.87
2019-01-11T10:33:19.566Z,1.53
2019-01-11T10:38:25.666Z,1.73
2019-01-11T10:43:32.105Z,2.10
2019-01-11T10:48:38.364Z,1.77
2019-01-11T10:53:45.554Z,2.07
2019-01-11T10:58:51.691Z,1.90
2019-01-11T11:03:57.887Z,2.33
2019-01-11T11:09:08.829Z,2.77
2019-01-11T11:14:14.968Z,2.97
2019-01-11T11:19:21.094Z,3.20
2019-01-11T11:24:27.220Z,2.77
2019-01-11T11:29:33.406Z,3.20
2019-01-11T11:34:42.663Z,2.93
2019-01-11T11:39:48.847Z,3.40
2019-01-11T11:44:55.056Z,3.00
2019-01-11T11:50:01.194Z,2.50
2019-01-11T11:55:07.624Z,2.20
2019-01-11T12:00:16.828Z,2.70
2019-01-11T12:05:22.946Z,2.07
2019-01-11T12:10:29.037Z,2.70
2019-01-11T12:15:35.255Z,3.27
2019-01-11T12:20:41.311Z,2.77
2019-01-11T12:25:47.467Z,2.90
2019-01-11T12:30:53.591Z,2.17
2019-01-11T12:35:59.713Z,3.30
2019-01-11T12:41:05.863Z,2.47
2019-01-11T12:46:11.955Z,2.07
2019-01-11T12:51:18.862Z,2.17
2019-01-11T12:56:26.034Z,3.00
2019-01-11T13:01:32.151Z,2.70
2019-01-11T13:06:38.262Z,2.70
2019-01-11T13:11:44.407Z,3.03
2019-01-11T13:16:50.613Z,4.17
2019-01-11T13:22:00.516Z,2.83
2019-01-11T13:27:04.725Z,2.87
2019-01-11T13:32:10.850Z,2.77
2019-01-11T13:37:17.173Z,2.97
2019-01-11T13:42:23.246Z,2.70
2019-01-11T13:47:29.436Z,3.00
2019-01-11T13:52:35.642Z,3.03
2019-01-11T13:57:41.858Z,2.77
2019-01-11T14:02:47.966Z,3.27
2019-01-11T14:07:54.102Z,3.07
2019-01-11T14:12:59.683Z,2.53
2019-01-11T14:18:06.611Z,3.20
2019-01-11T14:23:12.303Z,2.83
2019-01-11T14:28:17.703Z,3.00
2019-01-11T14:33:23.018Z,2.27
2019-01-11T14:38:28.374Z,2.40
2019-01-11T14:43:33.863Z,2.50
2019-01-11T14:48:39.255Z,3.00
2019-01-11T14:53:44.729Z,2.97
2019-01-11T14:58:50.039Z,2.60
2019-01-11T15:03:55.380Z,3.23
2019-01-11T15:09:00.690Z,2.00
2019-01-11T15:14:06.110Z,2.00
2019-01-11T15:19:14.099Z,2.13
2019-01-11T15:24:18.486Z,2.70
2019-01-11T15:29:23.803Z,3.53
2019-01-11T15:34:29.124Z,3.87
2019-01-11T15:39:34.426Z,3.20
2019-01-11T15:44:40.329Z,3.20
2019-01-11T15:49:46.582Z,4.00
2019-01-11T15:54:52.841Z,3.63
2019-01-11T16:00:01.307Z,3.00
2019-01-11T16:05:08.993Z,2.77
2019-01-11T16:10:21.026Z,3.03
2019-01-11T16:15:41.550Z,3.00
2019-01-11T16:20:47.730Z,2.90
2019-01-11T16:25:54.000Z,2.37
2019-01-11T16:31:00.266Z,2.30
2019-01-11T16:36:06.666Z,2.73
2019-01-11T16:41:13.129Z,2.50
2019-01-11T16:46:19.354Z,2.90
2019-01-11T16:51:25.681Z,2.67
2019-01-11T16:56:32.068Z,2.80
2019-01-11T17:01:38.428Z,2.87
2019-01-11T17:06:44.730Z,3.23
2019-01-11T17:11:51.084Z,2.60
2019-01-11T17:16:57.326Z,4.27
2019-01-11T17:22:33.758Z,4.00
2019-01-11T17:27:40.693Z,3.70
2019-01-11T17:32:46.977Z,3.53
2019-01-11T17:37:53.415Z,3.27
2019-01-11T17:42:59.830Z,2.93
2019-01-11T17:48:06.141Z,2.97
2019-01-11T17:53:27.732Z,3.00
2019-01-11T17:58:31.716Z,2.00
2019-01-11T18:03:37.973Z,1.20
2019-01-11T18:08:45.578Z,1.70
2019-01-11T18:13:52.944Z,1.80
2019-01-11T18:18:59.363Z,1.60
2019-01-11T18:24:05.823Z,1.33
2019-01-11T18:29:12.238Z,1.63
2019-01-11T18:34:18.480Z,1.33
2019-01-11T18:39:24.804Z,2.03
2019-01-11T18:44:31.144Z,1.50
2019-01-11T18:49:37.694Z,2.00
2019-01-11T18:54:44.910Z,1.80
2019-01-11T18:59:51.257Z,2.27
2019-01-11T19:04:57.626Z,1.47
2019-01-11T19:10:04.781Z,1.13
2019-01-11T19:15:14.889Z,1.10
2019-01-11T19:20:23.824Z,1.03
2019-01-11T19:25:30.345Z,1.23
2019-01-11T19:30:36.723Z,1.43
2019-01-11T19:35:42.876Z,1.30
2019-01-11T19:40:50.874Z,1.30
2019-01-11T19:45:57.111Z,1.83
2019-01-11T19:51:03.344Z,1.60
2019-01-11T19:56:09.570Z,1.20
2019-01-11T20:01:15.809Z,1.90
2019-01-11T20:06:22.173Z,1.90
2019-01-11T20:11:28.683Z,1.63
2019-01-11T20:16:35.137Z,1.33
2019-01-11T20:21:41.322Z,1.67
2019-01-11T20:26:48.128Z,1.60
2019-01-11T20:31:54.311Z,1.40
2019-01-11T20:37:12.650Z,1.20
2019-01-11T20:42:18.859Z,1.40
2019-01-11T20:47:25.149Z,1.80
2019-01-11T20:52:31.337Z,1.43
2019-01-11T20:57:37.401Z,1.30
2019-01-11T21:02:43.718Z,1.27
2019-01-11T21:07:50.486Z,1.40
2019-01-11T21:12:56.689Z,1.40
2019-01-11T21:18:03.065Z,1.57
2019-01-11T21:23:09.605Z,1.40
2019-01-11T21:28:15.903Z,1.50
2019-01-11T21:33:22.038Z,1.90
2019-01-11T21:38:28.350Z,1.30
2019-01-11T21:43:34.773Z,1.10
2019-01-11T21:48:40.951Z,1.47
2019-01-11T21:53:47.168Z,1.30
2019-01-11T21:58:53.471Z,1.40
2019-01-11T22:03:59.751Z,1.20
2019-01-11T22:09:08.768Z,1.30
2019-01-11T22:14:15.113Z,0.90
2019-01-11T22:19:21.563Z,1.17
2019-01-11T22:24:27.859Z,1.10
2019-01-11T22:29:34.498Z,1.10
2019-01-11T22:34:40.830Z,1.23
2019-01-11T22:39:49.406Z,1.00
2019-01-11T22:44:55.935Z,1.20
2019-01-11T22:50:02.025Z,1.20
2019-01-11T22:55:10.013Z,1.40
2019-01-11T23:01:04.035Z,1.30
2019-01-11T23:06:53.400Z,1.13
2019-01-11T23:12:32.996Z,1.27
2019-01-11T23:18:07.443Z,1.23
2019-01-11T23:23:13.738Z,1.77
2019-01-11T23:28:19.884Z,1.50
2019-01-11T23:33:26.162Z,1.20
2019-01-11T23:38:32.411Z,1.57
2019-01-11T23:43:38.784Z,1.57
2019-01-11T23:48:45.260Z,5.87
2019-01-11T23:53:51.547Z,1.83
2019-01-11T23:58:57.778Z,1.47
